Lockesburg, Arkansas
Current Conditions -  °F | °C
As of 3:53 PM on Tuesday 25 Nov 2014 (Local Time) from KDEQ Reporting Station
Clear Clear  
Wind Chill: 58°   Ceiling: Unl
Heat Index: 58°   Visibility: 10mi
Dew Point: 25°   Wind: 8mph
Humidity: 28%   Direction: 240°WSW
Pressure: 30.14"   Gusts: NA
Location:  33.97°N, 94.17°W
Report Text: KDEQ 252153Z AUTO 24007KT 10SM CLR 14/M04 A3014 RMK AO2 SLP204 T01441039
Loading
Personal Weather Stations






























Interactive Weather Map New forecast layout! Learn more

10-Day Weather Forecast

Advertisements
Track Severe Weather on mobile